createdAt,value
2018-09-29T00:01:53.313Z,54.50
2018-09-29T00:04:25.854Z,54.60
2018-09-29T00:06:58.053Z,55.00
2018-09-29T00:09:30.781Z,55.00
2018-09-29T00:12:03.094Z,54.70
2018-09-29T00:14:35.334Z,54.40
2018-09-29T00:17:07.914Z,54.80
2018-09-29T00:19:39.553Z,54.80
2018-09-29T00:22:11.413Z,54.80
2018-09-29T00:24:43.915Z,54.70
2018-09-29T00:27:15.673Z,55.00
2018-09-29T00:29:48.114Z,55.10
2018-09-29T00:32:20.174Z,55.20
2018-09-29T00:34:51.973Z,55.10
2018-09-29T00:37:23.681Z,55.20
2018-09-29T00:39:55.659Z,55.60
2018-09-29T00:42:28.094Z,55.80
2018-09-29T00:44:59.973Z,56.30
2018-09-29T00:47:32.594Z,56.30
2018-09-29T00:50:04.333Z,55.50
2018-09-29T00:52:36.713Z,55.30
2018-09-29T00:55:08.774Z,55.50
2018-09-29T00:57:41.013Z,55.70
2018-09-29T01:00:12.954Z,55.80
2018-09-29T01:02:44.777Z,56.00
2018-09-29T01:05:16.513Z,56.10
2018-09-29T01:07:48.253Z,56.40
2018-09-29T01:10:20.373Z,56.70
2018-09-29T01:12:53.174Z,57.00
2018-09-29T01:15:24.635Z,57.10
2018-09-29T01:17:57.613Z,57.40
2018-09-29T01:20:30.314Z,57.30
2018-09-29T01:23:02.233Z,56.50
2018-09-29T01:25:33.222Z,57.60
2018-09-29T01:28:04.982Z,58.00
2018-09-29T01:30:36.862Z,58.40
2018-09-29T01:33:08.841Z,58.60
2018-09-29T01:35:40.822Z,58.60
2018-09-29T01:38:12.642Z,59.10
2018-09-29T01:40:44.581Z,59.00
2018-09-29T01:43:15.762Z,58.50
2018-09-29T01:45:47.622Z,58.10
2018-09-29T01:48:19.122Z,58.00
2018-09-29T01:50:51.581Z,57.60
2018-09-29T01:53:23.221Z,57.60
2018-09-29T01:55:55.362Z,57.60
2018-09-29T01:58:26.562Z,57.60
2018-09-29T02:00:58.542Z,57.70
2018-09-29T02:03:30.222Z,57.90
2018-09-29T02:06:02.265Z,58.20
2018-09-29T02:08:33.901Z,58.20
2018-09-29T02:11:05.262Z,58.30
2018-09-29T02:13:36.841Z,58.20
2018-09-29T02:16:08.722Z,58.50
2018-09-29T02:18:40.781Z,58.10
2018-09-29T02:21:12.761Z,58.90
2018-09-29T02:23:44.641Z,59.30
2018-09-29T02:26:16.361Z,60.40
2018-09-29T02:28:48.727Z,60.10
2018-09-29T02:31:20.801Z,59.90
2018-09-29T02:33:52.663Z,59.70
2018-09-29T02:36:25.082Z,59.00
2018-09-29T02:38:56.962Z,59.20
2018-09-29T02:41:28.482Z,59.40
2018-09-29T02:44:00.561Z,59.00
2018-09-29T02:46:32.242Z,59.60
2018-09-29T02:49:03.941Z,59.90
2018-09-29T02:51:35.982Z,59.50
2018-09-29T02:54:08.061Z,59.80
2018-09-29T02:56:38.422Z,59.80
2018-09-29T02:59:09.704Z,60.20
2018-09-29T03:01:41.463Z,60.40
2018-09-29T03:04:13.381Z,60.30
2018-09-29T03:06:44.901Z,60.30
2018-09-29T03:09:16.101Z,60.60
2018-09-29T03:11:47.901Z,60.20
2018-09-29T03:14:19.922Z,60.30
2018-09-29T03:16:51.622Z,60.00
2018-09-29T03:19:23.593Z,59.80
2018-09-29T03:21:54.922Z,59.90
2018-09-29T03:24:26.582Z,59.50
2018-09-29T03:26:57.743Z,59.90
2018-09-29T03:29:30.142Z,59.90
2018-09-29T03:32:02.069Z,59.80
2018-09-29T03:34:33.921Z,59.80
2018-09-29T03:37:06.522Z,59.90
2018-09-29T03:39:37.962Z,60.10
2018-09-29T03:42:10.002Z,60.10
2018-09-29T03:44:41.481Z,60.50
2018-09-29T03:47:12.962Z,60.60
2018-09-29T03:49:44.481Z,60.70
2018-09-29T03:52:16.802Z,60.90
2018-09-29T03:54:48.343Z,60.90
2018-09-29T03:57:20.523Z,61.50
2018-09-29T03:59:51.982Z,61.30
2018-09-29T04:02:23.722Z,61.70
2018-09-29T04:04:55.501Z,62.00
2018-09-29T04:07:27.382Z,62.20
2018-09-29T04:09:59.205Z,62.50
2018-09-29T04:12:29.921Z,62.80
2018-09-29T04:15:02.281Z,63.00
2018-09-29T04:17:34.641Z,63.10
2018-09-29T04:20:06.003Z,63.60
2018-09-29T04:22:37.821Z,63.80
2018-09-29T04:25:09.481Z,64.00
2018-09-29T04:27:41.681Z,64.20
2018-09-29T04:30:13.021Z,64.30
2018-09-29T04:32:45.381Z,64.60
2018-09-29T04:35:17.621Z,64.70
2018-09-29T04:37:48.983Z,64.90
2018-09-29T04:40:21.502Z,64.70
2018-09-29T04:42:52.921Z,64.80
2018-09-29T04:45:24.865Z,65.00
2018-09-29T04:47:56.521Z,65.20
2018-09-29T04:50:28.121Z,65.20
2018-09-29T04:52:59.644Z,65.40
2018-09-29T04:55:31.561Z,65.50
2018-09-29T04:58:03.462Z,65.70
2018-09-29T05:00:35.461Z,65.70
2018-09-29T05:03:07.421Z,66.00
2018-09-29T05:05:39.641Z,66.40
2018-09-29T05:08:11.001Z,66.50
2018-09-29T05:10:42.661Z,66.70
2018-09-29T05:13:13.861Z,66.80
2018-09-29T05:15:45.021Z,67.20
2018-09-29T05:18:17.681Z,67.50
2018-09-29T05:20:50.181Z,67.50
2018-09-29T05:23:22.038Z,67.70
2018-09-29T05:25:53.641Z,67.60
2018-09-29T05:28:25.962Z,67.90
2018-09-29T05:30:58.073Z,68.10
2018-09-29T05:33:31.422Z,68.30
2018-09-29T05:36:03.181Z,68.40
2018-09-29T05:38:36.537Z,68.00
2018-09-29T05:41:08.281Z,67.90
2018-09-29T05:43:40.003Z,68.00
2018-09-29T05:46:12.122Z,68.10
2018-09-29T05:48:43.403Z,68.50
2018-09-29T05:51:14.982Z,68.60
2018-09-29T05:53:46.936Z,68.50
2018-09-29T05:56:18.842Z,68.60
2018-09-29T05:58:51.002Z,68.70
2018-09-29T06:01:22.562Z,68.90
2018-09-29T06:03:53.663Z,69.00
2018-09-29T06:06:25.823Z,69.00
2018-09-29T06:08:57.202Z,69.30
2018-09-29T06:11:28.422Z,69.50
2018-09-29T06:14:00.363Z,69.40
2018-09-29T06:16:32.543Z,69.30
2018-09-29T06:19:03.803Z,69.30
2018-09-29T06:21:35.662Z,69.30
2018-09-29T06:24:07.546Z,69.00
2018-09-29T06:26:39.802Z,69.20
2018-09-29T06:29:11.333Z,69.10
2018-09-29T06:31:43.372Z,68.90
2018-09-29T06:34:15.275Z,69.10
2018-09-29T06:36:46.822Z,69.10
2018-09-29T06:39:18.265Z,69.30
2018-09-29T06:41:49.902Z,69.40
2018-09-29T06:44:21.382Z,69.60
2018-09-29T06:46:53.843Z,69.80
2018-09-29T06:49:25.002Z,69.90
2018-09-29T06:51:56.602Z,69.40
2018-09-29T06:54:28.222Z,69.50
2018-09-29T06:56:59.823Z,70.10
2018-09-29T06:59:32.002Z,69.80
2018-09-29T07:02:03.043Z,69.20
2018-09-29T07:04:35.170Z,69.20
2018-09-29T07:07:06.863Z,69.70
2018-09-29T07:09:39.362Z,68.00
2018-09-29T07:12:10.542Z,66.60
2018-09-29T07:14:41.943Z,66.60
2018-09-29T07:17:13.623Z,66.30
2018-09-29T07:19:45.503Z,65.90
2018-09-29T07:22:17.223Z,65.70
2018-09-29T07:24:49.382Z,65.60
2018-09-29T07:27:20.962Z,65.00
2018-09-29T07:29:51.982Z,64.90
2018-09-29T07:32:23.842Z,65.10
2018-09-29T07:34:55.823Z,65.10
2018-09-29T07:37:28.093Z,65.90
2018-09-29T07:39:59.303Z,65.70
2018-09-29T07:42:32.382Z,65.90
2018-09-29T07:45:03.569Z,65.70
2018-09-29T07:47:36.242Z,65.80
2018-09-29T07:50:08.722Z,65.50
2018-09-29T07:52:40.162Z,65.10
2018-09-29T07:55:11.563Z,65.40
2018-09-29T07:57:43.582Z,65.20
2018-09-29T08:00:15.906Z,65.00
2018-09-29T08:02:48.263Z,65.10
2018-09-29T08:05:20.682Z,64.50
2018-09-29T08:07:52.685Z,64.30
2018-09-29T08:10:24.062Z,64.20
2018-09-29T08:12:57.321Z,63.10
2018-09-29T08:15:28.983Z,63.30
2018-09-29T08:18:00.182Z,63.10
2018-09-29T08:20:32.480Z,62.90
2018-09-29T08:23:04.539Z,63.00
2018-09-29T08:25:36.439Z,62.50
2018-09-29T08:28:08.425Z,62.30
2018-09-29T08:30:39.992Z,61.90
2018-09-29T08:33:10.621Z,61.40
2018-09-29T08:35:42.058Z,61.00
2018-09-29T08:38:13.336Z,60.90
2018-09-29T08:40:45.459Z,60.70
2018-09-29T08:43:16.569Z,60.80
2018-09-29T08:45:48.810Z,60.60
2018-09-29T08:48:20.309Z,61.50
2018-09-29T08:50:52.409Z,60.80
2018-09-29T08:53:23.847Z,60.30
2018-09-29T08:55:54.329Z,60.60
2018-09-29T08:58:25.584Z,60.20
2018-09-29T09:00:56.983Z,60.00
2018-09-29T09:03:28.908Z,60.00
2018-09-29T09:06:00.203Z,59.20
2018-09-29T09:08:32.003Z,59.20
2018-09-29T09:11:03.524Z,59.40
2018-09-29T09:13:34.868Z,59.90
2018-09-29T09:16:06.764Z,59.80
2018-09-29T09:18:39.084Z,59.50
2018-09-29T09:21:10.963Z,58.80
2018-09-29T09:23:43.111Z,58.80
2018-09-29T09:26:15.412Z,58.80
2018-09-29T09:28:47.344Z,58.00
2018-09-29T09:31:19.565Z,58.10
2018-09-29T09:33:51.920Z,57.60
2018-09-29T09:36:24.139Z,57.50
2018-09-29T09:38:55.740Z,57.70
2018-09-29T09:41:27.550Z,58.00
2018-09-29T09:43:58.760Z,57.60
2018-09-29T09:46:30.676Z,57.90
2018-09-29T09:49:02.297Z,57.30
2018-09-29T09:51:34.501Z,56.80
2018-09-29T09:54:06.119Z,57.20
2018-09-29T09:56:38.495Z,57.30
2018-09-29T09:59:11.232Z,57.40
2018-09-29T10:01:48.254Z,56.70
2018-09-29T10:04:19.832Z,56.50
2018-09-29T10:06:51.372Z,55.70
2018-09-29T10:09:22.941Z,56.20
2018-09-29T10:11:55.178Z,55.50
2018-09-29T10:14:26.798Z,55.00
2018-09-29T10:16:58.902Z,55.40
2018-09-29T10:19:30.400Z,55.50
2018-09-29T10:22:02.642Z,55.00
2018-09-29T10:24:34.372Z,54.50
2018-09-29T10:27:06.032Z,54.20
2018-09-29T10:29:37.536Z,54.70
2018-09-29T10:32:10.311Z,54.50
2018-09-29T10:34:41.791Z,54.80
2018-09-29T10:37:13.511Z,54.50
2018-09-29T10:39:45.298Z,53.90
2018-09-29T10:42:18.031Z,53.80
2018-09-29T10:44:49.954Z,53.10
2018-09-29T10:47:21.972Z,52.90
2018-09-29T10:49:53.830Z,53.40
2018-09-29T10:52:25.771Z,52.80
2018-09-29T10:54:59.091Z,52.40
2018-09-29T10:57:31.187Z,52.50
2018-09-29T11:00:03.809Z,51.50
2018-09-29T11:02:35.570Z,52.30
2018-09-29T11:05:07.717Z,52.50
2018-09-29T11:07:39.066Z,51.90
2018-09-29T11:10:10.700Z,51.30
2018-09-29T11:12:43.019Z,51.10
2018-09-29T11:15:15.019Z,51.00
2018-09-29T11:17:46.759Z,50.70
2018-09-29T11:20:18.871Z,50.30
2018-09-29T11:22:50.019Z,50.70
2018-09-29T11:25:21.827Z,50.90
2018-09-29T11:27:53.133Z,50.00
2018-09-29T11:30:24.188Z,50.30
2018-09-29T11:32:55.635Z,50.00
2018-09-29T11:35:27.955Z,50.40
2018-09-29T11:37:59.997Z,49.80
2018-09-29T11:40:31.361Z,50.20
2018-09-29T11:43:03.338Z,50.40
2018-09-29T11:45:34.837Z,50.40
2018-09-29T11:48:06.487Z,49.10
2018-09-29T11:50:38.322Z,49.30
2018-09-29T11:53:10.443Z,48.80
2018-09-29T11:55:41.322Z,49.20
2018-09-29T11:58:13.722Z,48.90
2018-09-29T12:00:45.461Z,49.10
2018-09-29T12:03:17.041Z,48.60
2018-09-29T12:05:50.824Z,48.40
2018-09-29T12:08:22.343Z,47.90
2018-09-29T12:10:54.882Z,47.90
2018-09-29T12:13:26.403Z,48.00
2018-09-29T12:15:58.862Z,47.90
2018-09-29T12:18:31.242Z,47.80
2018-09-29T12:21:03.291Z,47.30
2018-09-29T12:23:35.409Z,47.80
2018-09-29T12:26:07.086Z,47.80
2018-09-29T12:28:40.166Z,47.40
2018-09-29T12:31:12.546Z,47.50
2018-09-29T12:33:44.146Z,47.60
2018-09-29T12:36:16.568Z,46.90
2018-09-29T12:38:54.572Z,47.30
2018-09-29T12:41:27.546Z,47.80
2018-09-29T12:43:59.266Z,47.40
2018-09-29T12:46:30.986Z,48.00
2018-09-29T12:49:02.946Z,47.90
2018-09-29T12:51:35.274Z,47.90
2018-09-29T12:54:07.685Z,48.00
2018-09-29T12:56:39.306Z,48.00
2018-09-29T12:59:10.946Z,48.00
2018-09-29T13:01:42.866Z,48.70
2018-09-29T13:04:14.846Z,48.70
2018-09-29T13:06:47.265Z,48.80
2018-09-29T13:09:19.326Z,48.70
2018-09-29T13:11:50.567Z,49.20
2018-09-29T13:14:22.567Z,49.60
2018-09-29T13:16:54.401Z,49.90
2018-09-29T13:19:26.187Z,50.00
2018-09-29T13:21:57.705Z,49.90
2018-09-29T13:24:29.145Z,50.10
2018-09-29T13:27:01.191Z,50.10
2018-09-29T13:29:33.120Z,50.10
2018-09-29T13:32:05.226Z,50.50
2018-09-29T13:34:37.707Z,50.90
2018-09-29T13:37:09.851Z,51.70
2018-09-29T13:39:42.109Z,51.40
2018-09-29T13:42:14.366Z,51.20
2018-09-29T13:44:45.765Z,51.50
2018-09-29T13:47:17.726Z,51.40
2018-09-29T13:49:50.106Z,52.00
2018-09-29T13:52:22.906Z,51.90
2018-09-29T13:54:55.107Z,51.90
2018-09-29T13:57:27.026Z,51.40
2018-09-29T13:59:58.974Z,51.30
2018-09-29T14:02:30.726Z,52.30
2018-09-29T14:05:03.520Z,52.00
2018-09-29T14:07:36.047Z,51.90
2018-09-29T14:10:07.846Z,51.90
2018-09-29T14:12:40.488Z,52.10
2018-09-29T14:15:12.646Z,52.40
2018-09-29T14:17:45.106Z,52.50
2018-09-29T14:20:17.425Z,52.60
2018-09-29T14:22:50.126Z,52.70
2018-09-29T14:25:21.466Z,52.60
2018-09-29T14:27:53.318Z,52.80
2018-09-29T14:30:24.917Z,52.80
2018-09-29T14:32:56.597Z,52.60
2018-09-29T14:35:29.100Z,52.50
2018-09-29T14:38:01.238Z,52.80
2018-09-29T14:40:32.938Z,52.90
2018-09-29T14:43:06.017Z,53.10
2018-09-29T14:45:38.717Z,52.80
2018-09-29T14:48:10.418Z,52.70
2018-09-29T14:50:42.458Z,52.70
2018-09-29T14:53:14.557Z,52.70
2018-09-29T14:55:46.419Z,52.80
2018-09-29T14:58:18.637Z,53.10
2018-09-29T15:00:50.498Z,52.80
2018-09-29T15:03:23.277Z,53.10
2018-09-29T15:05:55.857Z,53.00
2018-09-29T15:08:27.417Z,52.80
2018-09-29T15:11:00.238Z,52.90
2018-09-29T15:13:33.218Z,53.10
2018-09-29T15:16:05.361Z,53.10
2018-09-29T15:18:38.179Z,53.10
2018-09-29T15:21:10.877Z,53.00
2018-09-29T15:23:42.937Z,53.10
2018-09-29T15:26:15.863Z,53.10
2018-09-29T15:28:48.017Z,52.90
2018-09-29T15:31:19.816Z,52.70
2018-09-29T15:33:52.426Z,52.80
2018-09-29T15:36:25.497Z,53.00
2018-09-29T15:38:57.499Z,53.10
2018-09-29T15:41:29.957Z,53.20
2018-09-29T15:44:01.859Z,53.30
2018-09-29T15:46:34.938Z,53.10
2018-09-29T15:49:07.199Z,53.40
2018-09-29T15:51:39.617Z,53.80
2018-09-29T15:54:11.538Z,54.10
2018-09-29T15:56:43.837Z,53.70
2018-09-29T15:59:16.767Z,53.70
2018-09-29T16:01:48.618Z,53.90
2018-09-29T16:04:20.958Z,53.90
2018-09-29T16:06:52.657Z,53.90
2018-09-29T16:09:24.942Z,54.10
2018-09-29T16:11:57.919Z,54.20
2018-09-29T16:14:29.377Z,54.20
2018-09-29T16:17:02.117Z,54.90
2018-09-29T16:19:34.017Z,54.20
2018-09-29T16:22:06.077Z,54.40
2018-09-29T16:24:38.060Z,54.50
2018-09-29T16:27:09.737Z,54.50
2018-09-29T16:29:42.097Z,54.60
2018-09-29T16:32:14.077Z,54.70
2018-09-29T16:34:46.299Z,55.10
2018-09-29T16:37:18.556Z,55.20
2018-09-29T16:39:50.557Z,55.80
2018-09-29T16:42:22.759Z,56.00
2018-09-29T16:44:54.457Z,56.30
2018-09-29T16:47:27.178Z,57.10
2018-09-29T16:49:59.401Z,57.00
2018-09-29T16:52:31.137Z,56.90
2018-09-29T16:55:04.498Z,56.30
2018-09-29T16:57:36.865Z,56.70
2018-09-29T17:00:08.798Z,56.40
2018-09-29T17:02:41.698Z,56.60
2018-09-29T17:05:13.746Z,57.20
2018-09-29T17:07:46.078Z,58.20
2018-09-29T17:10:17.958Z,59.30
2018-09-29T17:12:49.639Z,59.60
2018-09-29T17:15:21.578Z,60.40
2018-09-29T17:17:53.404Z,60.90
2018-09-29T17:20:25.958Z,60.90
2018-09-29T17:22:58.099Z,61.30
2018-09-29T17:25:31.978Z,61.70
2018-09-29T17:28:03.839Z,62.00
2018-09-29T17:30:35.860Z,62.60
2018-09-29T17:33:07.939Z,62.70
2018-09-29T17:35:40.758Z,62.50
2018-09-29T17:38:12.520Z,62.60
2018-09-29T17:40:44.397Z,62.60
2018-09-29T17:43:16.841Z,62.70
2018-09-29T17:45:48.818Z,63.10
2018-09-29T17:48:21.239Z,63.30
2018-09-29T17:50:52.941Z,63.10
2018-09-29T17:53:25.458Z,63.10
2018-09-29T17:55:57.298Z,63.20
2018-09-29T17:58:29.258Z,63.30
2018-09-29T18:01:01.419Z,63.50
2018-09-29T18:03:33.259Z,64.50
2018-09-29T18:06:04.678Z,64.00
2018-09-29T18:08:36.889Z,64.30
2018-09-29T18:11:09.417Z,64.20
2018-09-29T18:13:40.973Z,64.60
2018-09-29T18:16:12.918Z,64.90
2018-09-29T18:18:45.017Z,64.70
2018-09-29T18:21:16.919Z,65.00
2018-09-29T18:23:49.398Z,65.90
2018-09-29T18:26:20.619Z,65.60
2018-09-29T18:28:52.757Z,65.80
2018-09-29T18:31:24.377Z,66.20
2018-09-29T18:33:56.617Z,66.10
2018-09-29T18:36:28.900Z,66.20
2018-09-29T18:39:01.259Z,66.40
2018-09-29T18:41:32.697Z,66.30
2018-09-29T18:44:05.100Z,66.60
2018-09-29T18:46:36.498Z,66.70
2018-09-29T18:49:08.518Z,66.60
2018-09-29T18:51:40.117Z,66.50
2018-09-29T18:54:11.938Z,66.70
2018-09-29T18:56:44.702Z,66.80
2018-09-29T18:59:16.379Z,67.00
2018-09-29T19:01:49.358Z,66.90
2018-09-29T19:04:21.302Z,67.00
2018-09-29T19:06:53.579Z,66.60
2018-09-29T19:09:25.820Z,66.80
2018-09-29T19:11:57.457Z,67.00
2018-09-29T19:14:29.157Z,67.20
2018-09-29T19:17:01.119Z,67.20
2018-09-29T19:19:32.898Z,67.20
2018-09-29T19:22:04.759Z,67.10
2018-09-29T19:24:36.737Z,67.00
2018-09-29T19:27:08.637Z,67.50
2018-09-29T19:29:40.517Z,67.60
2018-09-29T19:32:12.197Z,67.60
2018-09-29T19:34:44.177Z,67.60
2018-09-29T19:37:15.642Z,67.80
2018-09-29T19:39:47.584Z,67.90
2018-09-29T19:42:19.457Z,67.60
2018-09-29T19:44:51.637Z,67.80
2018-09-29T19:47:22.998Z,67.70
2018-09-29T19:49:55.539Z,67.40
2018-09-29T19:52:28.297Z,67.40
2018-09-29T19:55:00.137Z,67.80
2018-09-29T19:57:33.578Z,68.10
2018-09-29T20:00:05.437Z,68.50
2018-09-29T20:02:36.958Z,68.50
2018-09-29T20:05:09.939Z,68.20
2018-09-29T20:07:41.258Z,67.90
2018-09-29T20:10:13.704Z,67.90
2018-09-29T20:12:44.938Z,68.30
2018-09-29T20:15:16.419Z,67.80
2018-09-29T20:17:48.737Z,67.60
2018-09-29T20:20:21.138Z,67.60
2018-09-29T20:22:53.479Z,68.20
2018-09-29T20:25:25.138Z,68.20
2018-09-29T20:27:57.818Z,67.90
2018-09-29T20:30:29.256Z,67.80
2018-09-29T20:33:02.057Z,67.90
2018-09-29T20:35:34.737Z,67.70
2018-09-29T20:38:06.217Z,67.60
2018-09-29T20:40:38.898Z,67.50
2018-09-29T20:43:10.817Z,67.30
2018-09-29T20:45:42.597Z,67.40
2018-09-29T20:48:14.785Z,67.50
2018-09-29T20:50:46.677Z,67.00
2018-09-29T20:53:19.817Z,67.10
2018-09-29T20:55:52.657Z,67.00
2018-09-29T20:58:24.237Z,66.80
2018-09-29T21:00:56.920Z,66.60
2018-09-29T21:03:28.757Z,67.00
2018-09-29T21:06:00.058Z,68.00
2018-09-29T21:08:31.338Z,68.80
2018-09-29T21:11:03.498Z,69.40
2018-09-29T21:13:34.949Z,69.70
2018-09-29T21:16:07.097Z,70.00
2018-09-29T21:18:38.958Z,70.60
2018-09-29T21:21:11.217Z,69.80
2018-09-29T21:23:43.998Z,69.30
2018-09-29T21:26:15.500Z,69.10
2018-09-29T21:28:48.054Z,69.50
2018-09-29T21:31:19.639Z,69.50
2018-09-29T21:33:51.817Z,69.40
2018-09-29T21:36:23.749Z,69.30
2018-09-29T21:38:56.300Z,69.20
2018-09-29T21:41:28.438Z,69.00
2018-09-29T21:44:00.297Z,69.20
2018-09-29T21:46:31.978Z,68.90
2018-09-29T21:49:04.799Z,69.10
2018-09-29T21:51:36.617Z,69.30
2018-09-29T21:54:08.598Z,69.60
2018-09-29T21:56:40.819Z,69.80
2018-09-29T21:59:13.279Z,69.80
2018-09-29T22:01:45.017Z,69.70
2018-09-29T22:04:17.017Z,69.70
2018-09-29T22:06:48.917Z,70.00
2018-09-29T22:09:22.057Z,70.20
2018-09-29T22:11:54.716Z,70.50
2018-09-29T22:14:26.298Z,70.60
2018-09-29T22:16:58.718Z,70.70
2018-09-29T22:19:31.017Z,71.00
2018-09-29T22:22:02.877Z,71.10
2018-09-29T22:24:34.937Z,71.10
2018-09-29T22:27:06.468Z,71.20
2018-09-29T22:29:38.905Z,71.10
2018-09-29T22:32:10.857Z,71.00
2018-09-29T22:34:43.057Z,71.20
2018-09-29T22:37:15.238Z,71.50
2018-09-29T22:39:47.118Z,71.50
2018-09-29T22:42:18.597Z,71.70
2018-09-29T22:44:50.497Z,71.70
2018-09-29T22:47:22.997Z,71.70
2018-09-29T22:49:55.300Z,71.80
2018-09-29T22:52:26.978Z,71.80
2018-09-29T22:54:59.179Z,71.90
2018-09-29T22:57:30.194Z,72.00
2018-09-29T23:00:02.977Z,72.10
2018-09-29T23:02:34.497Z,72.20
2018-09-29T23:05:07.220Z,72.30
2018-09-29T23:07:39.258Z,72.30
2018-09-29T23:10:10.603Z,72.50
2018-09-29T23:12:42.378Z,72.50
2018-09-29T23:15:14.277Z,72.70
2018-09-29T23:17:46.657Z,72.90
2018-09-29T23:20:18.357Z,73.10
2018-09-29T23:22:50.777Z,73.70
2018-09-29T23:25:22.157Z,73.30
2018-09-29T23:27:54.257Z,73.40
2018-09-29T23:30:26.097Z,73.50
2018-09-29T23:32:58.139Z,73.60
2018-09-29T23:35:30.097Z,73.70
2018-09-29T23:38:02.457Z,73.90
2018-09-29T23:40:35.117Z,73.80
2018-09-29T23:43:06.880Z,73.80
2018-09-29T23:45:39.017Z,73.70
2018-09-29T23:48:11.017Z,73.80
2018-09-29T23:50:42.259Z,73.90
2018-09-29T23:53:14.477Z,73.90
2018-09-29T23:55:45.938Z,73.80
2018-09-29T23:58:17.958Z,74.70
